GLO27LB SBSP-SBRJ
Flight info
| Callsign | GLO27LB |
|---|---|
| Flight time | 0h 35m |
| Altitude | 29000 |
| Route | BAIAN3B NIBRU UZ171 KEVUN ASALU1A |
| Aircraft | B737/M-SDE2E3FGHIRWXY/LB1 |
Departure
| Time | 2026-05-08 00:07 |
|---|---|
| Airport | Congonhas–Deputado Freitas Nobre Airport (SBSP) |
Arrival
| Time | 2026-05-08 00:42 |
|---|---|
| Airport | Santos Dumont Airport (SBRJ) |
| Time | Latitude | Longitude | Altitude | Speed | Heading |
|---|---|---|---|---|---|
| 2026-05-07 23:48 | -23.62688 | -46.65844 | 2600 ft | 0 kts | 237° |
| 2026-05-07 23:53 | -23.62680 | -46.65832 | 2600 ft | 4 kts | 227° |
| 2026-05-07 23:53 | -23.62660 | -46.65816 | 2600 ft | 4 kts | 185° |
| 2026-05-07 23:53 | -23.62642 | -46.65819 | 2600 ft | 0 kts | 148° |
| 2026-05-07 23:57 | -23.62655 | -46.65810 | 2600 ft | 6 kts | 148° |
| 2026-05-07 23:57 | -23.62704 | -46.65777 | 2600 ft | 11 kts | 148° |
| 2026-05-07 23:57 | -23.62781 | -46.65723 | 2600 ft | 15 kts | 147° |
| 2026-05-07 23:58 | -23.62856 | -46.65637 | 2601 ft | 17 kts | 122° |
| 2026-05-07 23:58 | -23.62957 | -46.65555 | 2602 ft | 20 kts | 148° |
| 2026-05-07 23:58 | -23.63079 | -46.65502 | 2601 ft | 17 kts | 152° |
| 2026-05-07 23:58 | -23.63160 | -46.65448 | 2601 ft | 15 kts | 147° |
| 2026-05-07 23:59 | -23.63240 | -46.65393 | 2601 ft | 12 kts | 148° |
| 2026-05-07 23:59 | -23.63313 | -46.65343 | 2601 ft | 14 kts | 148° |
| 2026-05-07 23:59 | -23.63394 | -46.65284 | 2601 ft | 11 kts | 135° |
| 2026-05-07 23:59 | -23.63392 | -46.65216 | 2603 ft | 9 kts | 56° |
| 2026-05-08 00:00 | -23.63349 | -46.65177 | 2606 ft | 7 kts | 2° |
| 2026-05-08 00:00 | -23.63338 | -46.65181 | 2606 ft | 0 kts | 333° |
| 2026-05-08 00:04 | -23.63326 | -46.65190 | 2612 ft | 4 kts | 327° |
| 2026-05-08 00:04 | -23.63315 | -46.65197 | 2611 ft | 0 kts | 327° |
| 2026-05-08 00:06 | -23.63310 | -46.65201 | 2621 ft | 11 kts | 327° |
| 2026-05-08 00:06 | -23.62965 | -46.65440 | 2608 ft | 103 kts | 328° |
| 2026-05-08 00:07 | -23.62145 | -46.65990 | 2721 ft | 164 kts | 333° |
| 2026-05-08 00:07 | -23.61217 | -46.66621 | 3903 ft | 143 kts | 330° |
| 2026-05-08 00:07 | -23.60280 | -46.66908 | 4827 ft | 150 kts | 11° |
| 2026-05-08 00:07 | -23.59420 | -46.66213 | 5242 ft | 173 kts | 53° |
| 2026-05-08 00:08 | -23.59195 | -46.64870 | 5990 ft | 188 kts | 92° |
| 2026-05-08 00:08 | -23.59486 | -46.63505 | 7047 ft | 184 kts | 97° |
| 2026-05-08 00:08 | -23.59783 | -46.62128 | 7853 ft | 189 kts | 96° |
| 2026-05-08 00:08 | -23.60075 | -46.60716 | 8667 ft | 193 kts | 96° |
| 2026-05-08 00:09 | -23.60411 | -46.59251 | 9383 ft | 209 kts | 100° |
| 2026-05-08 00:09 | -23.60820 | -46.57628 | 9805 ft | 234 kts | 101° |
| 2026-05-08 00:09 | -23.61268 | -46.55830 | 10178 ft | 257 kts | 100° |
| 2026-05-08 00:09 | -23.61964 | -46.53921 | 10448 ft | 295 kts | 123° |
| 2026-05-08 00:10 | -23.63575 | -46.52343 | 10756 ft | 327 kts | 146° |
| 2026-05-08 00:10 | -23.65465 | -46.50994 | 11693 ft | 329 kts | 142° |
| 2026-05-08 00:10 | -23.67242 | -46.49401 | 12588 ft | 336 kts | 135° |
| 2026-05-08 00:10 | -23.68963 | -46.47593 | 13151 ft | 352 kts | 132° |
| 2026-05-08 00:11 | -23.70460 | -46.45437 | 13793 ft | 359 kts | 113° |
| 2026-05-08 00:11 | -23.71095 | -46.42811 | 14354 ft | 362 kts | 90° |
| 2026-05-08 00:11 | -23.70876 | -46.40076 | 15081 ft | 362 kts | 76° |
| 2026-05-08 00:11 | -23.70412 | -46.37314 | 15475 ft | 380 kts | 77° |
| 2026-05-08 00:12 | -23.69971 | -46.34417 | 15889 ft | 392 kts | 78° |
| 2026-05-08 00:12 | -23.69541 | -46.31456 | 16526 ft | 397 kts | 79° |
| 2026-05-08 00:12 | -23.69117 | -46.28469 | 17185 ft | 401 kts | 79° |
| 2026-05-08 00:12 | -23.68688 | -46.25448 | 17850 ft | 405 kts | 79° |
| 2026-05-08 00:13 | -23.68254 | -46.22395 | 18455 ft | 410 kts | 79° |
| 2026-05-08 00:13 | -23.67813 | -46.19303 | 18953 ft | 415 kts | 78° |
| 2026-05-08 00:13 | -23.67364 | -46.16164 | 19434 ft | 421 kts | 79° |
| 2026-05-08 00:13 | -23.66916 | -46.13045 | 19963 ft | 424 kts | 80° |
| 2026-05-08 00:14 | -23.66454 | -46.09835 | 20372 ft | 432 kts | 80° |
| 2026-05-08 00:14 | -23.65987 | -46.06581 | 20883 ft | 436 kts | 80° |
| 2026-05-08 00:14 | -23.65515 | -46.03302 | 21356 ft | 441 kts | 80° |
| 2026-05-08 00:14 | -23.65037 | -45.99981 | 21827 ft | 446 kts | 80° |
| 2026-05-08 00:15 | -23.64552 | -45.96614 | 22318 ft | 449 kts | 81° |
| 2026-05-08 00:15 | -23.64064 | -45.93233 | 22799 ft | 453 kts | 81° |
| 2026-05-08 00:15 | -23.63569 | -45.89810 | 23225 ft | 459 kts | 81° |
| 2026-05-08 00:15 | -23.63069 | -45.86349 | 23628 ft | 464 kts | 81° |
| 2026-05-08 00:16 | -23.62562 | -45.82860 | 24005 ft | 467 kts | 81° |
| 2026-05-08 00:16 | -23.62053 | -45.79353 | 24420 ft | 469 kts | 81° |
| 2026-05-08 00:16 | -23.61547 | -45.75874 | 24837 ft | 471 kts | 81° |
| 2026-05-08 00:16 | -23.61031 | -45.72336 | 25227 ft | 474 kts | 81° |
| 2026-05-08 00:17 | -23.60511 | -45.68775 | 25583 ft | 477 kts | 81° |
| 2026-05-08 00:17 | -23.59987 | -45.65190 | 25938 ft | 480 kts | 81° |
| 2026-05-08 00:17 | -23.59460 | -45.61593 | 26324 ft | 482 kts | 81° |
| 2026-05-08 00:17 | -23.58929 | -45.57968 | 26699 ft | 485 kts | 81° |
| 2026-05-08 00:18 | -23.58394 | -45.54331 | 27053 ft | 487 kts | 81° |
| 2026-05-08 00:18 | -23.57856 | -45.50669 | 27413 ft | 490 kts | 82° |
| 2026-05-08 00:18 | -23.57313 | -45.46997 | 27750 ft | 493 kts | 81° |
| 2026-05-08 00:18 | -23.56662 | -45.43321 | 28104 ft | 495 kts | 78° |
| 2026-05-08 00:19 | -23.55896 | -45.39658 | 28526 ft | 495 kts | 77° |
| 2026-05-08 00:19 | -23.55079 | -45.36006 | 28932 ft | 496 kts | 76° |
| 2026-05-08 00:19 | -23.53006 | -45.28773 | 29021 ft | 501 kts | 71° |
| 2026-05-08 00:20 | -23.50675 | -45.21654 | 29013 ft | 498 kts | 70° |
| 2026-05-08 00:20 | -23.48366 | -45.14532 | 29017 ft | 498 kts | 71° |
| 2026-05-08 00:21 | -23.46123 | -45.07432 | 29010 ft | 498 kts | 71° |
| 2026-05-08 00:21 | -23.43885 | -45.00280 | 29007 ft | 498 kts | 71° |
| 2026-05-08 00:22 | -23.41646 | -44.93130 | 29009 ft | 498 kts | 71° |
| 2026-05-08 00:22 | -23.39402 | -44.85992 | 29011 ft | 498 kts | 71° |
| 2026-05-08 00:23 | -23.37154 | -44.78857 | 29005 ft | 498 kts | 71° |
| 2026-05-08 00:23 | -23.34899 | -44.71712 | 29000 ft | 499 kts | 71° |
| 2026-05-08 00:24 | -23.32638 | -44.64562 | 28850 ft | 500 kts | 71° |
| 2026-05-08 00:24 | -23.31507 | -44.60990 | 28571 ft | 498 kts | 71° |
| 2026-05-08 00:24 | -23.30377 | -44.57426 | 28331 ft | 498 kts | 71° |
| 2026-05-08 00:25 | -23.29247 | -44.53863 | 28064 ft | 498 kts | 71° |
| 2026-05-08 00:25 | -23.28130 | -44.50344 | 27815 ft | 497 kts | 71° |
| 2026-05-08 00:25 | -23.26998 | -44.46783 | 27501 ft | 495 kts | 71° |
| 2026-05-08 00:25 | -23.25869 | -44.43232 | 26211 ft | 498 kts | 71° |
| 2026-05-08 00:26 | -23.24735 | -44.39659 | 25002 ft | 504 kts | 71° |
| 2026-05-08 00:26 | -23.23594 | -44.36064 | 23937 ft | 502 kts | 71° |
| 2026-05-08 00:26 | -23.22461 | -44.32513 | 23018 ft | 492 kts | 70° |
| 2026-05-08 00:26 | -23.21350 | -44.29038 | 21989 ft | 475 kts | 70° |
| 2026-05-08 00:27 | -23.20277 | -44.25681 | 20861 ft | 466 kts | 70° |
| 2026-05-08 00:27 | -23.19230 | -44.22411 | 19944 ft | 460 kts | 69° |
| 2026-05-08 00:27 | -23.18192 | -44.19166 | 19086 ft | 451 kts | 70° |
| 2026-05-08 00:27 | -23.17172 | -44.15982 | 18441 ft | 438 kts | 69° |
| 2026-05-08 00:28 | -23.16180 | -44.12888 | 17596 ft | 429 kts | 69° |
| 2026-05-08 00:28 | -23.15209 | -44.09852 | 16811 ft | 420 kts | 68° |
| 2026-05-08 00:28 | -23.14252 | -44.06871 | 15876 ft | 415 kts | 69° |
| 2026-05-08 00:28 | -23.13303 | -44.03922 | 14981 ft | 411 kts | 69° |
| 2026-05-08 00:29 | -23.12369 | -44.01019 | 14234 ft | 404 kts | 69° |
| 2026-05-08 00:29 | -23.11449 | -43.98158 | 13406 ft | 397 kts | 69° |
| 2026-05-08 00:29 | -23.10538 | -43.95335 | 12402 ft | 396 kts | 69° |
| 2026-05-08 00:29 | -23.09645 | -43.92555 | 11544 ft | 392 kts | 69° |
| 2026-05-08 00:30 | -23.08759 | -43.89798 | 11092 ft | 378 kts | 68° |
| 2026-05-08 00:30 | -23.07915 | -43.87172 | 10949 ft | 357 kts | 68° |
| 2026-05-08 00:30 | -23.07120 | -43.84699 | 10833 ft | 338 kts | 68° |
| 2026-05-08 00:30 | -23.06362 | -43.82348 | 10732 ft | 321 kts | 68° |
| 2026-05-08 00:31 | -23.05635 | -43.80096 | 10423 ft | 312 kts | 67° |
| 2026-05-08 00:31 | -23.04915 | -43.77874 | 9946 ft | 311 kts | 67° |
| 2026-05-08 00:31 | -23.04203 | -43.75682 | 9482 ft | 310 kts | 67° |
| 2026-05-08 00:31 | -23.03490 | -43.73481 | 9052 ft | 308 kts | 67° |
| 2026-05-08 00:32 | -23.02779 | -43.71288 | 8638 ft | 308 kts | 67° |
| 2026-05-08 00:32 | -23.02075 | -43.69114 | 8222 ft | 306 kts | 67° |
| 2026-05-08 00:32 | -23.01370 | -43.66939 | 7818 ft | 304 kts | 67° |
| 2026-05-08 00:32 | -23.00896 | -43.65478 | 7541 ft | 303 kts | 67° |
| 2026-05-08 00:33 | -23.00197 | -43.63322 | 7145 ft | 303 kts | 66° |
| 2026-05-08 00:33 | -22.99418 | -43.61204 | 7039 ft | 301 kts | 61° |
| 2026-05-08 00:33 | -22.98507 | -43.59152 | 6823 ft | 306 kts | 59° |
| 2026-05-08 00:33 | -22.97574 | -43.57099 | 6586 ft | 299 kts | 59° |
| 2026-05-08 00:34 | -22.96683 | -43.55107 | 6359 ft | 288 kts | 60° |
| 2026-05-08 00:34 | -22.95835 | -43.53193 | 6205 ft | 277 kts | 60° |
| 2026-05-08 00:34 | -22.95016 | -43.51335 | 6039 ft | 276 kts | 60° |
| 2026-05-08 00:34 | -22.94202 | -43.49453 | 5828 ft | 276 kts | 62° |
| 2026-05-08 00:35 | -22.93404 | -43.47569 | 5586 ft | 273 kts | 63° |
| 2026-05-08 00:35 | -22.92622 | -43.45715 | 5371 ft | 268 kts | 60° |
| 2026-05-08 00:35 | -22.91850 | -43.43888 | 5114 ft | 263 kts | 60° |
| 2026-05-08 00:35 | -22.91110 | -43.42133 | 4884 ft | 247 kts | 61° |
| 2026-05-08 00:36 | -22.90423 | -43.40502 | 4666 ft | 229 kts | 60° |
| 2026-05-08 00:36 | -22.89779 | -43.38981 | 4454 ft | 215 kts | 61° |
| 2026-05-08 00:36 | -22.89175 | -43.37556 | 4274 ft | 201 kts | 61° |
| 2026-05-08 00:36 | -22.88588 | -43.36174 | 4108 ft | 200 kts | 60° |
| 2026-05-08 00:37 | -22.88299 | -43.34711 | 3984 ft | 203 kts | 90° |
| 2026-05-08 00:37 | -22.88450 | -43.33204 | 3678 ft | 203 kts | 92° |
| 2026-05-08 00:37 | -22.88599 | -43.31700 | 3408 ft | 198 kts | 92° |
| 2026-05-08 00:38 | -22.88881 | -43.28760 | 2916 ft | 188 kts | 93° |
| 2026-05-08 00:38 | -22.89010 | -43.27385 | 2666 ft | 179 kts | 92° |
| 2026-05-08 00:38 | -22.89246 | -43.26102 | 2532 ft | 175 kts | 111° |
| 2026-05-08 00:38 | -22.89793 | -43.24883 | 2129 ft | 181 kts | 114° |
| 2026-05-08 00:39 | -22.90336 | -43.23696 | 1819 ft | 170 kts | 114° |
| 2026-05-08 00:39 | -22.90844 | -43.22581 | 1573 ft | 157 kts | 113° |
| 2026-05-08 00:39 | -22.91315 | -43.21539 | 1288 ft | 154 kts | 114° |
| 2026-05-08 00:39 | -22.91799 | -43.20485 | 1328 ft | 159 kts | 112° |
| 2026-05-08 00:40 | -22.92289 | -43.19404 | 1368 ft | 161 kts | 111° |
| 2026-05-08 00:40 | -22.92924 | -43.18431 | 1507 ft | 159 kts | 133° |
| 2026-05-08 00:40 | -22.93822 | -43.17686 | 1489 ft | 162 kts | 135° |
| 2026-05-08 00:40 | -22.94385 | -43.16720 | 1318 ft | 148 kts | 94° |
| 2026-05-08 00:41 | -22.94085 | -43.15762 | 916 ft | 135 kts | 39° |
| 2026-05-08 00:41 | -22.93242 | -43.15752 | 538 ft | 136 kts | 324° |
| 2026-05-08 00:41 | -22.92403 | -43.16179 | 174 ft | 131 kts | 354° |
| 2026-05-08 00:41 | -22.91507 | -43.16255 | 24 ft | 126 kts | 357° |
| 2026-05-08 00:42 | -22.90799 | -43.16297 | 23 ft | 53 kts | 356° |
| 2026-05-08 00:42 | -22.90544 | -43.16314 | 23 ft | 27 kts | 351° |
| 2026-05-08 00:42 | -22.90496 | -43.16447 | 22 ft | 20 kts | 266° |
| 2026-05-08 00:42 | -22.90545 | -43.16556 | 21 ft | 17 kts | 183° |
| 2026-05-08 00:43 | -22.90662 | -43.16549 | 21 ft | 16 kts | 177° |
| 2026-05-08 00:43 | -22.90773 | -43.16542 | 23 ft | 16 kts | 176° |
| 2026-05-08 00:43 | -22.90880 | -43.16548 | 21 ft | 15 kts | 177° |
| 2026-05-08 00:43 | -22.90983 | -43.16541 | 21 ft | 15 kts | 176° |
| 2026-05-08 00:44 | -22.91075 | -43.16533 | 21 ft | 8 kts | 169° |
| 2026-05-08 00:44 | -22.91114 | -43.16522 | 21 ft | 2 kts | 166° |
| 2026-05-08 00:44 | -22.91115 | -43.16522 | 21 ft | 0 kts | 166° |
| 2026-05-08 00:47 | -22.91119 | -43.16522 | 21 ft | 1 kts | 176° |
| 2026-05-08 00:47 | -22.91132 | -43.16537 | 21 ft | 4 kts | 244° |
| 2026-05-08 00:47 | -22.91135 | -43.16571 | 21 ft | 2 kts | 267° |
| 2026-05-08 00:47 | -22.91136 | -43.16582 | 21 ft | 1 kts | 267° |
| 2026-05-08 00:48 | -22.91136 | -43.16586 | 21 ft | 0 kts | 267° |